Silly, Belgium
Current Conditions -  °F | °C
As of 7:25 AM on Saturday 25 Oct 2014 (Local Time) from EBCV Reporting Station
Broken Clouds Broken Clouds  
Wind Chill: 54°   Ceiling: 600
Heat Index: 54°   Visibility: 4mi
Dew Point: 52°   Wind: 8mph
Humidity: 94%   Direction: 200°SSW
Pressure: 30.03"   Gusts: NA
Location:  50.65°N, 3.92°E
Report Text: EBCV 250525Z AUTO 20007KT 6000 BKN006/// 12/11 Q1017 YLO
Loading
Personal Weather Stations






























Interactive Weather Map New forecast layout! Learn more

10-Day Weather Forecast

Advertisements
Track Severe Weather on mobile